• Join FlightAware (Why Join?)
  • Login
  • US Flag 
07:50AM EDT


 

Airport Tracker/Info


-or-


 

Live Flight TrackerFlight Track Log ✈ AAL832 ✈ 15-Aug-2013 ✈ KLAX - KORD

Flight Track Log - Related Links

Times and Time Zones

All times are in EDT time to prevent confusion due to time zone crossing. See the AAL832 flight status page for this flight to view local times or setup timezone preferences in your user account.

Time Position Orientation Groundspeed Altitude Reporting Facility
EDT Latitude Longitude Course Direction KTS MPH feet Rate Location/Type
12:34PM 33.9311 -118.4661 46° Northeast 202 232 1,800  Level Los Angeles Center
12:35PM 33.9069 -118.5431 249° West 246 283 3,000 1,500 Climbing Los Angeles Center
12:36PM 34.1242 -118.0850 59° Northeast  Level FlightAware Approximate
12:36PM 33.8614 -118.6122 232° Southwest 278 320 5,000  Level Los Angeles Center
12:37PM 34.1878 -117.9579 59° Northeast  Level FlightAware Approximate
12:37PM 33.8122 -118.5611 139° Southeast 280 322 7,000  Level Los Angeles Center
12:38PM 34.2513 -117.8307 59° Northeast  Level FlightAware Approximate
12:38PM 33.8689 -118.4792 50° Northeast 321 369 9,300  Level Los Angeles Center
12:39PM 34.3316 -117.7189 46° Northeast  Level FlightAware Approximate
12:39PM 33.9381 -118.4289 31° Northeast 318 366 10,900  Level Los Angeles Center
12:40PM 33.9917 -118.3319 56° Northeast 343 395 13,100 2,040 Climbing Los Angeles Center
12:41PM 34.0692 -118.2161 51° Northeast 370 426 15,200 1,560 Climbing Los Angeles Center
12:42PM 34.1319 -118.1017 56° Northeast 400 460 16,400 2,040 Climbing Los Angeles Center
12:43PM 34.1983 -117.9847 56° Northeast 419 482 19,500 2,400 Climbing Los Angeles Center
12:44PM 34.2600 -117.8708 57° Northeast 408 470 21,500 1,740 Climbing Los Angeles Center
12:45PM 34.3264 -117.7539 55° Northeast 419 482 23,200 1,500 Climbing Los Angeles Center
12:46PM 34.4086 -117.6344 50° Northeast 437 503 24,700 1,260 Climbing Los Angeles Center
12:48PM 34.4711 -117.5431 50° Northeast 440 506 25,900 1,260 Climbing Los Angeles Center
12:49PM 34.5675 -117.4031 50° Northeast 453 521 27,600 1,500 Climbing Los Angeles Center
12:50PM 34.6825 -117.2369 50° Northeast 461 531 29,400 1,320 Climbing Los Angeles Center
12:51PM 34.7653 -117.1142 51° Northeast 469 540 30,400 960 Climbing Los Angeles Center
12:52PM 34.8503 -116.9906 50° Northeast 477 549 31,400 1,080 Climbing Los Angeles Center
12:53PM 34.9369 -116.8639 50° Northeast 487 560 32,700 1,200 Climbing Los Angeles Center
12:54PM 35.0400 -116.7103 51° Northeast 490 564 34,000 1,020 Climbing Los Angeles Center
12:55PM 35.1275 -116.5844 50° Northeast 491 565 34,900 900 Climbing Los Angeles Center
12:56PM 35.2144 -116.4569 50° Northeast 490 564 35,900 840 Climbing Los Angeles Center
12:57PM 35.3006 -116.3314 50° Northeast 487 560 36,700 480 Climbing Los Angeles Center
12:58PM 35.3883 -116.2019 50° Northeast 494 568 37,000 120 Climbing Los Angeles Center
12:59PM 35.4908 -116.0467 51° Northeast 492 566 37,000  Level Los Angeles Center
01:00PM 35.5778 -115.9203 50° Northeast 488 562 37,000  Level Los Angeles Center
01:01PM 35.6661 -115.7847 51° Northeast 488 562 37,000  Level Los Angeles Center
01:02PM 35.7514 -115.6561 51° Northeast 488 562 37,000  Level Los Angeles Center
01:03PM 35.8361 -115.5269 51° Northeast 488 562 37,000  Level Los Angeles Center
01:04PM 35.9211 -115.3983 51° Northeast 488 562 37,000  Level Los Angeles Center
01:05PM 36.0217 -115.2472 51° Northeast 477 549 37,000  Level Los Angeles Center
01:06PM 36.1003 -115.1153 54° Northeast 479 551 37,000  Level Los Angeles Center
01:07PM 36.1681 -114.9692 60° Northeast 491 565 37,000  Level Los Angeles Center
01:08PM 36.2358 -114.8258 60° Northeast 489 563 37,000  Level Los Angeles Center
01:09PM 36.3025 -114.6811 60° Northeast 487 560 37,000  Level Los Angeles Center
01:11PM 36.3839 -114.5075 60° Northeast 487 560 37,000  Level Los Angeles Center
01:12PM 36.4506 -114.3625 60° Northeast 486 559 37,000  Level Los Angeles Center
01:13PM 36.5178 -114.2164 60° Northeast 484 557 37,000  Level Los Angeles Center
01:14PM 36.5822 -114.0731 61° Northeast 480 552 37,000  Level Los Angeles Center
01:15PM 36.6494 -113.9275 60° Northeast 483 556 37,000  Level Los Angeles Center
01:16PM 36.7292 -113.7517 60° Northeast 486 559 37,000  Level Los Angeles Center
01:17PM 36.8086 -113.5778 60° Northeast 484 557 37,000  Level Los Angeles Center
01:18PM 36.8744 -113.4303 61° Northeast 485 558 37,000  Level Los Angeles Center
01:19PM 36.9394 -113.2800 62° Northeast 491 565 37,000  Level Los Angeles Center
01:20PM 36.9933 -113.1617 60° Northeast 491 565 37,000  Level Los Angeles Center
01:21PM 37.0578 -113.0142 61° Northeast 487 560 37,000  Level Los Angeles Center
01:22PM 37.1503 -112.8053 61° Northeast 493 567 37,000  Level Los Angeles Center
01:23PM 37.2153 -112.6561 61° Northeast 493 567 37,000  Level Los Angeles Center
01:24PM 37.2803 -112.5064 61° Northeast 493 567 37,000  Level Los Angeles Center
01:25PM 37.3461 -112.3558 61° Northeast 497 572 37,000  Level Los Angeles Center
01:26PM 37.4242 -112.1761 61° Northeast 492 566 37,000  Level Los Angeles Center
01:27PM 37.4894 -112.0250 61° Northeast 495 570 37,000  Level Los Angeles Center
01:28PM 37.5619 -111.8794 58° Northeast 492 566 37,000  Level Los Angeles Center
01:29PM 37.6369 -111.7358 57° Northeast 491 565 37,000  Level Los Angeles Center
01:30PM 37.7092 -111.5917 58° Northeast 490 564 37,000  Level Los Angeles Center
01:32PM 37.8111 -111.3894 57° Northeast 491 565 37,000  Level Denver Center
01:33PM 37.8994 -111.2147 57° Northeast 492 566 37,000  Level Salt Lake Center
01:34PM 37.9728 -111.0700 57° Northeast 490 564 37,000  Level Salt Lake Center
01:35PM 38.0489 -110.9158 58° Northeast 491 565 37,000  Level Salt Lake Center
01:36PM 38.1192 -110.7772 57° Northeast 489 563 37,000  Level Salt Lake Center
01:37PM 38.1886 -110.6375 58° Northeast 488 562 37,000  Level Denver Center
01:38PM 38.2561 -110.4972 58° Northeast 486 559 37,000  Level Denver Center
01:39PM 38.3375 -110.3339 58° Northeast 488 562 37,000  Level Denver Center
01:40PM 38.4042 -110.1944 59° Northeast 481 554 37,000  Level Denver Center
01:41PM 38.4739 -110.0542 58° Northeast 487 560 37,000  Level Denver Center
01:42PM 38.5303 -109.8756 68° East 490 564 37,000  Level Denver Center
01:43PM 38.5681 -109.7128 73° East 496 571 37,000  Level Denver Center
01:44PM 38.6103 -109.5222 74° East 498 573 37,000  Level Denver Center
01:45PM 38.6478 -109.3597 73° East 498 573 37,000  Level Denver Center
01:46PM 38.6844 -109.1992 74° East 495 570 37,000  Level Denver Center
01:47PM 38.7275 -109.0128 73° East 491 565 37,000  Level Denver Center
01:48PM 38.7692 -108.8256 74° East 490 564 37,000  Level Denver Center
01:49PM 38.8064 -108.6658 73° East 490 564 37,000  Level Denver Center
01:50PM 38.8467 -108.4794 74° East 488 562 37,000  Level Denver Center
01:51PM 38.8822 -108.3172 74° East 494 568 37,000  Level Denver Center
01:52PM 38.9233 -108.1308 74° East 489 563 37,000  Level Denver Center
01:53PM 38.9586 -107.9742 74° East 482 555 37,000  Level Denver Center
01:54PM 38.9978 -107.7903 75° East 480 552 37,000  Level Denver Center
01:55PM 39.0311 -107.6350 75° East 474 545 37,000  Level Denver Center
01:56PM 39.0703 -107.4542 74° East 470 541 37,000  Level Denver Center
01:57PM 39.1033 -107.3008 74° East 466 536 37,000  Level Denver Center
01:59PM 39.1553 -107.1297 69° East 460 529 37,000  Level Denver Center
02:00PM 39.2006 -106.9842 68° East 458 527 37,000  Level Denver Center
02:01PM 39.2542 -106.8128 68° East 461 531 37,000  Level Denver Center
02:02PM 39.2997 -106.6650 68° East 465 535 37,000  Level Denver Center
02:03PM 39.3522 -106.4917 69° East 464 534 37,000  Level Denver Center
02:04PM 39.3972 -106.3419 69° East 465 535 37,000  Level Denver Center
02:05PM 39.4489 -106.1706 69° East 470 541 37,000  Level Denver Center
02:06PM 39.4936 -106.0244 68° East 466 536 37,000  Level Denver Center
02:07PM 39.5378 -105.8658 70° East 467 537 37,000  Level Denver Center
02:08PM 39.5889 -105.6753 71° East 466 536 37,000  Level Denver Center
02:09PM 39.6314 -105.5186 71° East 459 528 37,000  Level Denver Center
02:10PM 39.6717 -105.3603 72° East 462 532 37,000  Level Denver Center
02:11PM 39.7119 -105.2050 71° East 453 521 37,000  Level Denver Center
02:12PM 39.7533 -105.0467 71° East 459 528 37,000  Level Denver Center
02:13PM 39.7939 -104.8911 71° East 452 520 37,000  Level Denver Center
02:14PM 39.8358 -104.7319 71° East 457 526 37,000  Level Denver Center
02:15PM 39.8764 -104.5728 72° East 458 527 37,000  Level Denver Center
02:16PM 39.9244 -104.3811 72° East 470 541 37,000  Level Denver Center
02:17PM 39.9644 -104.2228 72° East 451 519 37,000  Level Denver Center
02:18PM 40.0025 -104.0650 72° East 450 518 37,000  Level Denver Center
02:19PM 40.0419 -103.9081 72° East 448 516 37,000  Level Denver Center
02:20PM 40.0808 -103.7500 72° East 448 516 37,000  Level Denver Center
02:21PM 40.1192 -103.5964 72° East 439 505 37,000  Level Denver Center
02:22PM 40.1664 -103.4094 72° East 452 520 37,000  Level Denver Center
02:23PM 40.2039 -103.2542 72° East 449 517 37,000  Level Denver Center
02:24PM 40.2411 -103.0997 72° East 448 516 37,000 240 Level Denver Center
02:25PM 40.2792 -102.9411 72° East 455 524 37,500 600 Climbing Denver Center
02:26PM 40.3167 -102.7814 73° East 459 528 38,300 660 Climbing Denver Center
02:27PM 40.3575 -102.6086 73° East 461 531 38,900 300 Climbing Denver Center
02:29PM 40.3989 -102.4286 73° East 462 532 39,000  Climbing Denver Center
02:30PM 40.4356 -102.2753 73° East 460 529 39,000  Level Denver Center
02:31PM 40.4706 -102.1206 73° East 461 531 39,000  Level Denver Center
02:32PM 40.5125 -101.9414 73° East 460 529 39,000  Level Denver Center
02:33PM 40.5519 -101.7903 71° East 459 528 39,000  Level Denver Center
02:34PM 40.5983 -101.6142 71° East 457 526 39,000  Level Denver Center
02:35PM 40.6372 -101.4639 71° East 454 522 39,000  Level Denver Center
02:36PM 40.6811 -101.2897 72° East 451 519 39,000  Level Denver Center
02:37PM 40.7192 -101.1411 71° East 448 516 39,000  Level Denver Center
02:38PM 40.7556 -100.9936 72° East 445 512 39,000  Level Denver Center
02:39PM 40.7986 -100.8217 72° East 445 512 39,000  Level Denver Center
02:40PM 40.8411 -100.6567 71° East 446 513 39,000  Level Denver Center
02:41PM 40.8831 -100.4850 72° East 447 514 39,000  Level Denver Center
02:42PM 40.9186 -100.3386 72° East 441 507 39,000  Level Denver Center
02:43PM 40.9606 -100.1650 72° East 444 511 39,000  Level Denver Center
02:44PM 40.9964 -100.0167 72° East 443 510 39,000  Level Denver Center
02:45PM 41.0400 -99.8456 71° East 442 509 39,000  Level Denver Center
02:46PM 41.0786 -99.6994 71° East 439 505 39,000  Level Denver Center
02:47PM 41.1222 -99.5297 71° East 438 504 39,000  Level Denver Center
02:48PM 41.1567 -99.3956 71° East 433 498 39,000  Level Denver Center
02:49PM 41.2028 -99.2128 71° East 434 499 39,000  Level Denver Center
02:50PM 41.2450 -99.0456 71° East 436 502 39,000  Level Denver Center
02:51PM 41.2631 -98.9783 70° East 438 504 39,000  Level Minneapolis Center
02:52PM 41.3019 -98.8231 72° East 440 506 39,000  Level Minneapolis Center
02:53PM 41.3381 -98.6683 73° East 440 506 39,000  Level Minneapolis Center
02:54PM 41.3842 -98.4811 72° East 442 509 39,000  Level Minneapolis Center
02:55PM 41.4206 -98.3328 72° East 446 513 39,000  Level Minneapolis Center
02:56PM 41.4586 -98.1750 72° East 447 514 39,000  Level Minneapolis Center
02:57PM 41.5003 -98.0056 72° East 451 519 39,000  Level Minneapolis Center
02:58PM 41.5733 -97.8700 54° Northeast 455 524 39,000  Level Minneapolis Center
02:59PM 41.6633 -97.7489 45° Northeast 456 525 39,000  Level Minneapolis Center
03:00PM 41.7686 -97.6053 45° Northeast 451 519 39,000  Level Minneapolis Center
03:01PM 41.8522 -97.4856 47° Northeast 443 510 39,000  Level Minneapolis Center
03:02PM 41.9347 -97.3644 47° Northeast 441 507 39,000  Level Minneapolis Center
03:03PM 42.0181 -97.2442 47° Northeast 439 505 39,000  Level Minneapolis Center
03:05PM 42.0994 -97.1247 47° Northeast 435 501 39,000  Level Minneapolis Center
03:06PM 42.1986 -96.9806 47° Northeast 435 501 39,000  Level Minneapolis Center
03:07PM 42.2803 -96.8583 48° Northeast 437 503 39,000  Level Minneapolis Center
03:08PM 42.3700 -96.7089 51° Northeast 429 494 39,000  Level Minneapolis Center
03:09PM 42.3825 -96.5375 84° East 454 522 39,000  Level Minneapolis Center
03:10PM 42.3908 -96.3694 86° East 449 517 39,000  Level Minneapolis Center
03:11PM 42.3989 -96.2003 86° East 448 516 39,000  Level Minneapolis Center
03:12PM 42.4075 -96.0278 86° East 453 521 39,000  Level Minneapolis Center
03:13PM 42.4153 -95.8558 86° East 456 525 39,000  Level Minneapolis Center
03:14PM 42.4244 -95.6506 86° East 455 524 39,000  Level Minneapolis Center
03:15PM 42.4319 -95.4417 87° East 459 528 39,000  Level Minneapolis Center
03:16PM 42.4397 -95.2708 86° East 455 524 39,000  Level Minneapolis Center
03:17PM 42.4467 -95.0972 87° East 459 528 39,000  Level Minneapolis Center
03:18PM 42.4522 -94.9233 87° East 460 529 39,000  Level Minneapolis Center
03:20PM 42.4597 -94.7122 87° East 467 537 39,000  Level Minneapolis Center
03:21PM 42.4658 -94.5392 87° East 463 533 39,000  Level Minneapolis Center
03:22PM 42.4722 -94.3300 88° East 462 532 39,000  Level Minneapolis Center
03:23PM 42.4769 -94.1647 88° East 463 533 39,000  Level Minneapolis Center
03:24PM 42.4822 -93.9914 88° East 464 534 39,000  Level Minneapolis Center
03:25PM 42.4867 -93.8192 88° East 462 532 39,000  Level Minneapolis Center
03:26PM 42.4931 -93.6133 88° East 462 532 39,000  Level Minneapolis Center
03:27PM 42.4983 -93.4386 88° East 466 536 39,000  Level Minneapolis Center
03:28PM 42.5019 -93.2686 88° East 459 528 39,000  Level Minneapolis Center
03:29PM 42.5069 -93.0967 88° East 459 528 39,000  Level Chicago Center
03:30PM 42.5097 -92.9275 89° East 454 522 39,000 -480 Level Chicago Center
03:31PM 42.5125 -92.7569 89° East 456 525 38,100 -960 Descending Chicago Center
03:32PM 42.5161 -92.5847 88° East 461 531 37,100 -1,020 Descending Chicago Center
03:33PM 42.5181 -92.3758 89° East 468 539 36,000 -1,020 Descending Chicago Center
03:34PM 42.5217 -92.2028 88° East 466 536 35,100 -960 Descending Chicago Center
03:35PM 42.5236 -92.0300 89° East 466 536 34,100 -960 Descending Chicago Center
03:36PM 42.5244 -91.8536 90° East 473 544 33,200 -1,020 Descending Chicago Center
03:37PM 42.5261 -91.6397 89° East 483 556 32,000 -1,020 Descending Chicago Center
03:38PM 42.5256 -91.4592 90° East 488 562 31,100 -900 Descending Chicago Center
03:39PM 42.5267 -91.2822 89° East 479 551 30,200 -960 Descending Chicago Center
03:40PM 42.5261 -91.1033 90° East 482 555 29,200 -600 Descending Chicago Center
03:41PM 42.5253 -90.8875 90° East 483 556 29,000 -120 Descending Chicago Center
03:42PM 42.5244 -90.7072 90° East 483 556 29,000 -600 Level Chicago Center
03:44PM 42.5219 -90.3508 90° East 478 550 27,300 -900 Descending Chicago Center
03:45PM 42.5219 -90.1767 90° East 470 541 26,300 -1,080 Descending Chicago Center
03:46PM 42.5183 -89.9703 91° East 463 533 25,100 -1,080 Descending Chicago Center
03:47PM 42.5022 -89.8072 98° East 452 520 24,100 -960 Descending Chicago Center
03:48PM 42.4867 -89.6411 97° East 444 511 23,100 -1,020 Descending Chicago Center
03:49PM 42.4686 -89.4508 97° East 436 502 22,000 -1,020 Descending Chicago Center
03:50PM 42.4531 -89.2892 97° East 432 497 21,000 -1,320 Descending Chicago Center
03:51PM 42.4386 -89.1294 97° East 428 493 19,300 -2,040 Descending Chicago Center
03:52PM 42.4222 -88.9778 98° East 411 473 16,900 -2,280 Descending Chicago Center
03:54PM 42.4072 -88.8281 98° East 403 464 14,700 -2,220 Descending Chicago Center
03:55PM 42.3919 -88.6669 97° East 373 429 12,400 -2,040 Descending Chicago Center
03:56PM 42.3783 -88.5361 98° East 355 409 10,600 -1,200 Descending Chicago Center
03:57PM 42.3525 -88.4231 107° East 320 368 10,000 -300 Descending Chicago Center
03:58PM 42.3039 -88.3267 124° Southeast 317 365 10,000 -540 Level Chicago Center
03:59PM 42.2500 -88.2372 129° Southeast 311 358 8,900 -1,260 Descending Chicago Center
04:00PM 42.1928 -88.1419 129° Southeast 277 319 7,400 -960 Descending Chicago Center
04:01PM 42.1386 -88.0811 140° Southeast 252 290 7,000 -240 Descending Chicago Center
04:02PM 42.1000 -88.0333 137° Southeast 232 267 7,000  Level Chicago TRACON
04:03PM 42.1000 -87.9500 90° East 237 273 7,000  Level Chicago TRACON
04:04PM 42.1000 -87.8667 90° East 215 247 7,000 -300 Level Chicago TRACON
04:05PM 42.0833 -87.7833 105° East 209 241 6,400 -900 Descending Chicago TRACON
04:06PM 42.0833 -87.7167 90° East 204 235 5,300 -1,140 Descending Chicago TRACON
04:07PM 42.0833 -87.6500 90° East 200 230 4,200 -720 Descending Chicago TRACON
04:08PM 42.0333 -87.6667 194° South 197 227 3,900 -720 Descending Chicago TRACON
04:09PM 42.0167 -87.7333 251° West 185 213 2,800 -840 Descending Chicago TRACON
04:10PM 42.0000 -87.7833 246° West 182 209 2,300 -720 Descending Chicago TRACON
04:11PM 42.0000 -87.8500 270° West 162 186 1,400 -900 Descending Chicago TRACON